Long Prairie, MN (56347)

18:46 CST le 20 février 2017 (GMT -0600)
Long Prairie | | Change Station

Alt. 1332 ft 45.90 °N, 94.87 °W | Updated 12 minutes ago

Pluie
Pluie
39 ° F
Paraît 31 ° F
N
14
Vent Variable Vent de OSO
Gusts 20 mph

Aujourd'hui
Haut(e) -- | Bas -- ° F
--% Risque de précip.
Hier
Haut(e) -- | Bas -- ° F
Precip. -- pouce
Pression 29.66 pouce
Visibilité 4.0 Miles terrestres
Nuages Couvert 400 ft
Refroidissement éolien 31 ° F
Point de rosée 39 ° F
Humidité 100%
Précipitations 0.53 pouce
Profondeur de la couche neigeuse Non disponible.
7:13 AM 5:53 PM
Lune descendante, 30% visible
METAR K14Y 210034Z AUTO 25012G17KT 4SM -DZ OVC004 04/04 A2966 RMK AO2
Pression 29.66 pouce
Visibilité 4.0 Miles terrestres
Nuages Couvert 400 ft
Refroidissement éolien 31 ° F
Point de rosée 39 ° F
Humidité 100%
Précipitations 0.53 pouce
Profondeur de la couche neigeuse Non disponible.
7:13 AM 5:53 PM
Lune descendante, 30% visible
METAR K14Y 210034Z AUTO 25012G17KT 4SM -DZ OVC004 04/04 A2966 RMK AO2

Get Your Daily Forecast Email!

Thanks for signing up!

Be on the lookout for a verification email in your inbox.

You'll start receiving the daily forecast at 8 AM.

×

10-Day Weather Forecast

Almanac

Astronomie

Feb. 20, 2017 Lever Coucher
Temps réel
Crépuscule civil
Crépuscule nautique
Crépuscule astronomique
Lune
Durée de lumière visible
Longueur du jour
Tomorrow will be .
, % of the Moon is Illuminated

Extrêmes aujourd'hui

State Highs State Lows

Community

WunderPhotos

Upload Photos

1,962,540 Photos téléchargées !

WunderBlog® & News

Nearby

Qualité de l'air

  Qualité de l'air Indice de la qualité de l'air Polluant
Not available.

Épaisseur de neige

Station Depth Altitude

Activité sismique

Ville Distance Mag. Time & Date
Minimum magnitude displayed is 2.5.

Températures des eaux côtières

Lieu Température

Stations

Stations météo à proximité

Emplacement de la station Température Refroidissement éolien Point de rosée Humidité Vent Precip. Alt. Mise à jour Type
                   

Watches & Warnings

There are currently no watches in effect.